sensor_id;sensor_type;location;lat;lon;timestamp;P1;durP1;ratioP1;P2;durP2;ratioP2
14474;SDS011;7323;50.848;4.334;2023-09-19T00:00:17;9.07;;;2.70;;
14474;SDS011;7323;50.848;4.334;2023-09-19T00:02:45;10.03;;;3.27;;
14474;SDS011;7323;50.848;4.334;2023-09-19T00:05:12;11.70;;;3.20;;
14474;SDS011;7323;50.848;4.334;2023-09-19T00:07:56;11.70;;;3.27;;
14474;SDS011;7323;50.848;4.334;2023-09-19T00:10:25;10.03;;;3.23;;
14474;SDS011;7323;50.848;4.334;2023-09-19T00:12:53;11.03;;;3.07;;
14474;SDS011;7323;50.848;4.334;2023-09-19T00:15:23;10.10;;;2.93;;
14474;SDS011;7323;50.848;4.334;2023-09-19T00:17:51;12.87;;;3.30;;
14474;SDS011;7323;50.848;4.334;2023-09-19T00:20:19;8.53;;;2.60;;
14474;SDS011;7323;50.848;4.334;2023-09-19T00:22:48;7.80;;;2.37;;
14474;SDS011;7323;50.848;4.334;2023-09-19T00:25:17;8.33;;;3.00;;
14474;SDS011;7323;50.848;4.334;2023-09-19T00:27:44;9.70;;;2.43;;
14474;SDS011;7323;50.848;4.334;2023-09-19T00:30:12;8.37;;;2.57;;
14474;SDS011;7323;50.848;4.334;2023-09-19T00:32:43;13.97;;;3.40;;
14474;SDS011;7323;50.848;4.334;2023-09-19T00:35:12;9.77;;;2.93;;
14474;SDS011;7323;50.848;4.334;2023-09-19T00:37:40;9.73;;;2.60;;
14474;SDS011;7323;50.848;4.334;2023-09-19T00:40:06;12.50;;;3.33;;
14474;SDS011;7323;50.848;4.334;2023-09-19T00:42:37;9.93;;;2.77;;
14474;SDS011;7323;50.848;4.334;2023-09-19T00:45:03;10.20;;;2.80;;
14474;SDS011;7323;50.848;4.334;2023-09-19T00:47:30;12.00;;;3.40;;
14474;SDS011;7323;50.848;4.334;2023-09-19T00:49:57;11.63;;;3.27;;
14474;SDS011;7323;50.848;4.334;2023-09-19T00:52:23;11.23;;;3.17;;
14474;SDS011;7323;50.848;4.334;2023-09-19T00:54:51;7.77;;;3.17;;
14474;SDS011;7323;50.848;4.334;2023-09-19T00:57:17;11.53;;;2.97;;
14474;SDS011;7323;50.848;4.334;2023-09-19T00:59:44;8.83;;;3.30;;
14474;SDS011;7323;50.848;4.334;2023-09-19T01:02:14;9.37;;;2.90;;
14474;SDS011;7323;50.848;4.334;2023-09-19T01:04:41;12.40;;;2.97;;
14474;SDS011;7323;50.848;4.334;2023-09-19T01:07:08;9.97;;;2.70;;
14474;SDS011;7323;50.848;4.334;2023-09-19T01:09:34;11.90;;;2.90;;
14474;SDS011;7323;50.848;4.334;2023-09-19T01:12:01;9.77;;;2.77;;
14474;SDS011;7323;50.848;4.334;2023-09-19T01:17:29;11.40;;;3.43;;
14474;SDS011;7323;50.848;4.334;2023-09-19T01:31:28;15.23;;;3.53;;
14474;SDS011;7323;50.848;4.334;2023-09-19T01:34:01;11.90;;;2.87;;
14474;SDS011;7323;50.848;4.334;2023-09-19T01:36:32;15.30;;;3.60;;
14474;SDS011;7323;50.848;4.334;2023-09-19T01:39:01;9.57;;;3.20;;
14474;SDS011;7323;50.848;4.334;2023-09-19T01:44:04;11.87;;;3.00;;
14474;SDS011;7323;50.848;4.334;2023-09-19T01:46:33;15.57;;;3.67;;
14474;SDS011;7323;50.848;4.334;2023-09-19T01:51:34;10.40;;;2.90;;
14474;SDS011;7323;50.848;4.334;2023-09-19T01:54:10;9.13;;;3.83;;
14474;SDS011;7323;50.848;4.334;2023-09-19T01:56:57;11.93;;;3.07;;
14474;SDS011;7323;50.848;4.334;2023-09-19T01:59:34;13.27;;;3.40;;
14474;SDS011;7323;50.848;4.334;2023-09-19T02:02:06;11.23;;;2.87;;
14474;SDS011;7323;50.848;4.334;2023-09-19T02:04:32;12.93;;;3.00;;
14474;SDS011;7323;50.848;4.334;2023-09-19T02:07:00;11.27;;;3.17;;
14474;SDS011;7323;50.848;4.334;2023-09-19T02:09:26;15.33;;;2.90;;
14474;SDS011;7323;50.848;4.334;2023-09-19T02:11:52;11.83;;;3.47;;
14474;SDS011;7323;50.848;4.334;2023-09-19T02:14:17;12.40;;;3.40;;
14474;SDS011;7323;50.848;4.334;2023-09-19T02:16:44;11.60;;;2.93;;
14474;SDS011;7323;50.848;4.334;2023-09-19T02:19:10;9.43;;;3.07;;
14474;SDS011;7323;50.848;4.334;2023-09-19T02:21:36;11.67;;;3.80;;
14474;SDS011;7323;50.848;4.334;2023-09-19T02:24:04;8.80;;;3.63;;
14474;SDS011;7323;50.848;4.334;2023-09-19T02:26:33;8.13;;;2.77;;
14474;SDS011;7323;50.848;4.334;2023-09-19T02:29:02;10.87;;;3.33;;
14474;SDS011;7323;50.848;4.334;2023-09-19T02:31:30;9.23;;;2.73;;
14474;SDS011;7323;50.848;4.334;2023-09-19T02:33:59;16.17;;;3.57;;
14474;SDS011;7323;50.848;4.334;2023-09-19T02:36:26;13.63;;;3.30;;
14474;SDS011;7323;50.848;4.334;2023-09-19T02:38:51;12.17;;;2.93;;
14474;SDS011;7323;50.848;4.334;2023-09-19T02:41:17;12.10;;;3.33;;
14474;SDS011;7323;50.848;4.334;2023-09-19T02:43:43;10.33;;;3.47;;
14474;SDS011;7323;50.848;4.334;2023-09-19T02:46:09;11.57;;;3.20;;
14474;SDS011;7323;50.848;4.334;2023-09-19T02:48:36;11.10;;;3.03;;
14474;SDS011;7323;50.848;4.334;2023-09-19T02:51:02;15.30;;;3.40;;
14474;SDS011;7323;50.848;4.334;2023-09-19T02:53:30;12.67;;;3.40;;
14474;SDS011;7323;50.848;4.334;2023-09-19T02:58:32;12.70;;;3.33;;
14474;SDS011;7323;50.848;4.334;2023-09-19T03:01:07;8.63;;;2.37;;
14474;SDS011;7323;50.848;4.334;2023-09-19T03:03:34;13.63;;;3.30;;
14474;SDS011;7323;50.848;4.334;2023-09-19T03:06:00;10.83;;;2.97;;
14474;SDS011;7323;50.848;4.334;2023-09-19T03:08:29;9.50;;;2.97;;
14474;SDS011;7323;50.848;4.334;2023-09-19T03:10:54;5.60;;;2.30;;
14474;SDS011;7323;50.848;4.334;2023-09-19T03:13:20;12.00;;;3.17;;
14474;SDS011;7323;50.848;4.334;2023-09-19T03:15:46;11.90;;;3.20;;
14474;SDS011;7323;50.848;4.334;2023-09-19T03:18:14;10.33;;;2.60;;
14474;SDS011;7323;50.848;4.334;2023-09-19T03:20:40;9.17;;;2.73;;
14474;SDS011;7323;50.848;4.334;2023-09-19T03:23:06;9.50;;;3.03;;
14474;SDS011;7323;50.848;4.334;2023-09-19T03:25:33;12.03;;;3.03;;
14474;SDS011;7323;50.848;4.334;2023-09-19T03:28:00;10.80;;;3.37;;
14474;SDS011;7323;50.848;4.334;2023-09-19T03:30:30;10.57;;;2.90;;
14474;SDS011;7323;50.848;4.334;2023-09-19T03:32:57;11.30;;;3.07;;
14474;SDS011;7323;50.848;4.334;2023-09-19T03:35:23;9.10;;;2.93;;
14474;SDS011;7323;50.848;4.334;2023-09-19T03:37:50;14.70;;;3.03;;
14474;SDS011;7323;50.848;4.334;2023-09-19T03:40:17;10.37;;;3.17;;
14474;SDS011;7323;50.848;4.334;2023-09-19T03:42:46;8.10;;;2.60;;
14474;SDS011;7323;50.848;4.334;2023-09-19T03:45:13;9.30;;;2.97;;
14474;SDS011;7323;50.848;4.334;2023-09-19T03:47:41;8.87;;;3.07;;
14474;SDS011;7323;50.848;4.334;2023-09-19T03:50:07;11.67;;;3.77;;
14474;SDS011;7323;50.848;4.334;2023-09-19T03:52:33;13.60;;;3.57;;
14474;SDS011;7323;50.848;4.334;2023-09-19T03:54:59;11.97;;;2.73;;
14474;SDS011;7323;50.848;4.334;2023-09-19T03:57:27;14.57;;;3.20;;
14474;SDS011;7323;50.848;4.334;2023-09-19T03:59:53;7.73;;;2.80;;
14474;SDS011;7323;50.848;4.334;2023-09-19T04:02:20;10.77;;;2.73;;
14474;SDS011;7323;50.848;4.334;2023-09-19T04:04:49;14.27;;;2.87;;
14474;SDS011;7323;50.848;4.334;2023-09-19T04:07:15;8.23;;;2.60;;
14474;SDS011;7323;50.848;4.334;2023-09-19T04:09:47;12.87;;;3.60;;
14474;SDS011;7323;50.848;4.334;2023-09-19T04:12:14;11.67;;;3.30;;
14474;SDS011;7323;50.848;4.334;2023-09-19T04:14:43;13.40;;;2.73;;
14474;SDS011;7323;50.848;4.334;2023-09-19T04:17:08;10.70;;;2.80;;
14474;SDS011;7323;50.848;4.334;2023-09-19T04:19:36;10.27;;;2.83;;
14474;SDS011;7323;50.848;4.334;2023-09-19T04:22:02;11.33;;;2.90;;
14474;SDS011;7323;50.848;4.334;2023-09-19T04:24:29;8.10;;;2.77;;
14474;SDS011;7323;50.848;4.334;2023-09-19T04:26:55;12.07;;;2.97;;
14474;SDS011;7323;50.848;4.334;2023-09-19T04:29:22;9.43;;;2.93;;
14474;SDS011;7323;50.848;4.334;2023-09-19T04:31:53;12.00;;;3.33;;
14474;SDS011;7323;50.848;4.334;2023-09-19T04:34:19;10.67;;;2.93;;
14474;SDS011;7323;50.848;4.334;2023-09-19T04:36:45;11.93;;;3.23;;
14474;SDS011;7323;50.848;4.334;2023-09-19T04:39:10;9.33;;;2.97;;
14474;SDS011;7323;50.848;4.334;2023-09-19T04:41:37;12.17;;;2.90;;
14474;SDS011;7323;50.848;4.334;2023-09-19T04:44:05;9.23;;;2.80;;
14474;SDS011;7323;50.848;4.334;2023-09-19T04:46:32;10.37;;;3.10;;
14474;SDS011;7323;50.848;4.334;2023-09-19T04:48:59;11.83;;;3.47;;
14474;SDS011;7323;50.848;4.334;2023-09-19T04:51:25;11.70;;;3.27;;
14474;SDS011;7323;50.848;4.334;2023-09-19T04:53:55;13.70;;;3.37;;
14474;SDS011;7323;50.848;4.334;2023-09-19T04:56:21;9.63;;;3.17;;
14474;SDS011;7323;50.848;4.334;2023-09-19T04:58:49;12.17;;;3.67;;
14474;SDS011;7323;50.848;4.334;2023-09-19T05:01:16;8.80;;;2.73;;
14474;SDS011;7323;50.848;4.334;2023-09-19T05:03:41;14.17;;;3.33;;
14474;SDS011;7323;50.848;4.334;2023-09-19T05:06:09;9.80;;;2.90;;
14474;SDS011;7323;50.848;4.334;2023-09-19T05:08:35;11.60;;;3.60;;
14474;SDS011;7323;50.848;4.334;2023-09-19T05:11:03;14.53;;;3.13;;
14474;SDS011;7323;50.848;4.334;2023-09-19T05:13:29;10.67;;;2.63;;
14474;SDS011;7323;50.848;4.334;2023-09-19T05:15:59;11.87;;;3.07;;
14474;SDS011;7323;50.848;4.334;2023-09-19T05:18:27;14.13;;;3.00;;
14474;SDS011;7323;50.848;4.334;2023-09-19T05:20:53;9.63;;;2.80;;
14474;SDS011;7323;50.848;4.334;2023-09-19T05:23:20;10.83;;;3.10;;
14474;SDS011;7323;50.848;4.334;2023-09-19T05:25:47;13.47;;;3.20;;
14474;SDS011;7323;50.848;4.334;2023-09-19T05:28:14;7.47;;;2.87;;
14474;SDS011;7323;50.848;4.334;2023-09-19T05:30:40;14.73;;;3.20;;
14474;SDS011;7323;50.848;4.334;2023-09-19T05:33:08;14.63;;;3.73;;
14474;SDS011;7323;50.848;4.334;2023-09-19T05:35:34;9.97;;;3.30;;
14474;SDS011;7323;50.848;4.334;2023-09-19T05:38:04;12.13;;;3.10;;
14474;SDS011;7323;50.848;4.334;2023-09-19T05:40:34;7.60;;;2.63;;
14474;SDS011;7323;50.848;4.334;2023-09-19T05:43:00;12.53;;;3.40;;
14474;SDS011;7323;50.848;4.334;2023-09-19T05:45:29;13.13;;;2.93;;
14474;SDS011;7323;50.848;4.334;2023-09-19T05:47:56;11.90;;;3.70;;
14474;SDS011;7323;50.848;4.334;2023-09-19T05:50:37;9.33;;;2.80;;
14474;SDS011;7323;50.848;4.334;2023-09-19T05:53:03;13.80;;;3.40;;
14474;SDS011;7323;50.848;4.334;2023-09-19T05:55:29;11.90;;;3.90;;
14474;SDS011;7323;50.848;4.334;2023-09-19T05:57:59;16.33;;;3.00;;
14474;SDS011;7323;50.848;4.334;2023-09-19T06:00:25;11.33;;;3.23;;
14474;SDS011;7323;50.848;4.334;2023-09-19T06:02:54;15.13;;;3.13;;
14474;SDS011;7323;50.848;4.334;2023-09-19T06:05:20;11.67;;;2.90;;
14474;SDS011;7323;50.848;4.334;2023-09-19T06:07:46;6.67;;;2.80;;
14474;SDS011;7323;50.848;4.334;2023-09-19T06:10:21;12.17;;;3.83;;
14474;SDS011;7323;50.848;4.334;2023-09-19T06:12:48;12.80;;;2.80;;
14474;SDS011;7323;50.848;4.334;2023-09-19T06:15:14;9.07;;;2.97;;
14474;SDS011;7323;50.848;4.334;2023-09-19T06:17:42;10.20;;;2.97;;
14474;SDS011;7323;50.848;4.334;2023-09-19T06:20:08;9.93;;;3.13;;
14474;SDS011;7323;50.848;4.334;2023-09-19T06:25:14;12.07;;;3.13;;
14474;SDS011;7323;50.848;4.334;2023-09-19T06:27:52;11.67;;;3.07;;
14474;SDS011;7323;50.848;4.334;2023-09-19T06:30:19;10.70;;;2.60;;
14474;SDS011;7323;50.848;4.334;2023-09-19T06:32:46;15.37;;;3.60;;
14474;SDS011;7323;50.848;4.334;2023-09-19T06:35:14;11.17;;;3.00;;
14474;SDS011;7323;50.848;4.334;2023-09-19T06:37:41;12.13;;;3.03;;
14474;SDS011;7323;50.848;4.334;2023-09-19T06:43:00;14.70;;;3.47;;
14474;SDS011;7323;50.848;4.334;2023-09-19T06:45:27;10.00;;;2.50;;
14474;SDS011;7323;50.848;4.334;2023-09-19T06:47:53;10.37;;;2.73;;
14474;SDS011;7323;50.848;4.334;2023-09-19T06:50:22;11.93;;;2.73;;
14474;SDS011;7323;50.848;4.334;2023-09-19T06:52:49;11.13;;;2.90;;
14474;SDS011;7323;50.848;4.334;2023-09-19T06:55:20;10.97;;;2.67;;
14474;SDS011;7323;50.848;4.334;2023-09-19T06:57:48;11.93;;;3.33;;
14474;SDS011;7323;50.848;4.334;2023-09-19T07:00:14;7.53;;;2.53;;
14474;SDS011;7323;50.848;4.334;2023-09-19T07:05:36;11.10;;;2.93;;
14474;SDS011;7323;50.848;4.334;2023-09-19T07:08:07;14.73;;;3.60;;
14474;SDS011;7323;50.848;4.334;2023-09-19T07:10:38;12.90;;;3.40;;
14474;SDS011;7323;50.848;4.334;2023-09-19T07:13:14;9.20;;;3.60;;
14474;SDS011;7323;50.848;4.334;2023-09-19T07:15:42;13.43;;;2.90;;
14474;SDS011;7323;50.848;4.334;2023-09-19T07:18:13;13.20;;;3.37;;
14474;SDS011;7323;50.848;4.334;2023-09-19T07:20:40;14.13;;;3.00;;
14474;SDS011;7323;50.848;4.334;2023-09-19T07:23:11;16.20;;;3.43;;
14474;SDS011;7323;50.848;4.334;2023-09-19T07:25:39;11.43;;;2.70;;
14474;SDS011;7323;50.848;4.334;2023-09-19T07:28:06;11.37;;;3.13;;
14474;SDS011;7323;50.848;4.334;2023-09-19T07:30:35;8.90;;;2.63;;
14474;SDS011;7323;50.848;4.334;2023-09-19T07:33:03;14.00;;;3.10;;
14474;SDS011;7323;50.848;4.334;2023-09-19T07:35:30;11.30;;;3.47;;
14474;SDS011;7323;50.848;4.334;2023-09-19T07:37:56;13.27;;;2.90;;
14474;SDS011;7323;50.848;4.334;2023-09-19T07:40:23;13.23;;;3.13;;
14474;SDS011;7323;50.848;4.334;2023-09-19T07:42:51;8.57;;;2.80;;
14474;SDS011;7323;50.848;4.334;2023-09-19T07:45:18;14.40;;;2.83;;
14474;SDS011;7323;50.848;4.334;2023-09-19T07:47:47;12.60;;;3.20;;
14474;SDS011;7323;50.848;4.334;2023-09-19T07:50:14;13.37;;;2.97;;
14474;SDS011;7323;50.848;4.334;2023-09-19T07:52:44;10.97;;;3.07;;
14474;SDS011;7323;50.848;4.334;2023-09-19T07:55:16;11.17;;;3.37;;
14474;SDS011;7323;50.848;4.334;2023-09-19T07:57:42;11.80;;;2.63;;
14474;SDS011;7323;50.848;4.334;2023-09-19T08:00:08;11.23;;;3.17;;
14474;SDS011;7323;50.848;4.334;2023-09-19T08:02:35;9.57;;;2.93;;
14474;SDS011;7323;50.848;4.334;2023-09-19T08:05:03;13.17;;;3.03;;
14474;SDS011;7323;50.848;4.334;2023-09-19T08:07:38;9.40;;;3.00;;
14474;SDS011;7323;50.848;4.334;2023-09-19T08:10:06;12.93;;;3.43;;
14474;SDS011;7323;50.848;4.334;2023-09-19T08:12:36;14.97;;;2.90;;
14474;SDS011;7323;50.848;4.334;2023-09-19T08:15:02;12.33;;;3.30;;
14474;SDS011;7323;50.848;4.334;2023-09-19T08:17:28;12.93;;;2.93;;
14474;SDS011;7323;50.848;4.334;2023-09-19T08:19:59;12.50;;;3.10;;
14474;SDS011;7323;50.848;4.334;2023-09-19T08:22:25;10.07;;;3.00;;
14474;SDS011;7323;50.848;4.334;2023-09-19T08:24:53;13.10;;;3.23;;
14474;SDS011;7323;50.848;4.334;2023-09-19T08:27:19;10.70;;;2.70;;
14474;SDS011;7323;50.848;4.334;2023-09-19T08:29:44;10.43;;;2.70;;
14474;SDS011;7323;50.848;4.334;2023-09-19T08:32:11;12.57;;;2.97;;
14474;SDS011;7323;50.848;4.334;2023-09-19T08:34:45;11.07;;;2.70;;
14474;SDS011;7323;50.848;4.334;2023-09-19T08:37:11;13.37;;;3.40;;
14474;SDS011;7323;50.848;4.334;2023-09-19T08:39:37;14.47;;;2.97;;
14474;SDS011;7323;50.848;4.334;2023-09-19T08:42:02;10.77;;;2.70;;
14474;SDS011;7323;50.848;4.334;2023-09-19T08:44:29;10.13;;;3.70;;
14474;SDS011;7323;50.848;4.334;2023-09-19T08:46:58;12.87;;;3.37;;
14474;SDS011;7323;50.848;4.334;2023-09-19T08:52:27;14.00;;;2.90;;
14474;SDS011;7323;50.848;4.334;2023-09-19T08:54:58;9.40;;;2.67;;
14474;SDS011;7323;50.848;4.334;2023-09-19T08:57:29;10.07;;;3.17;;
14474;SDS011;7323;50.848;4.334;2023-09-19T09:00:02;9.30;;;2.87;;
14474;SDS011;7323;50.848;4.334;2023-09-19T09:02:35;9.00;;;2.47;;
14474;SDS011;7323;50.848;4.334;2023-09-19T09:05:06;10.40;;;2.83;;
14474;SDS011;7323;50.848;4.334;2023-09-19T09:07:36;9.90;;;2.43;;
14474;SDS011;7323;50.848;4.334;2023-09-19T09:10:02;12.00;;;2.50;;
14474;SDS011;7323;50.848;4.334;2023-09-19T09:12:29;12.13;;;2.60;;
14474;SDS011;7323;50.848;4.334;2023-09-19T09:14:55;9.63;;;2.93;;
14474;SDS011;7323;50.848;4.334;2023-09-19T09:17:23;7.17;;;2.33;;
14474;SDS011;7323;50.848;4.334;2023-09-19T09:19:57;9.07;;;2.53;;
14474;SDS011;7323;50.848;4.334;2023-09-19T09:22:23;10.77;;;2.37;;
14474;SDS011;7323;50.848;4.334;2023-09-19T09:24:53;8.77;;;2.73;;
14474;SDS011;7323;50.848;4.334;2023-09-19T09:27:23;9.97;;;2.50;;
14474;SDS011;7323;50.848;4.334;2023-09-19T09:29:50;10.70;;;2.33;;
14474;SDS011;7323;50.848;4.334;2023-09-19T09:34:59;8.53;;;2.40;;
14474;SDS011;7323;50.848;4.334;2023-09-19T09:37:27;9.70;;;2.43;;
14474;SDS011;7323;50.848;4.334;2023-09-19T09:39:59;8.23;;;2.60;;
14474;SDS011;7323;50.848;4.334;2023-09-19T09:42:46;8.73;;;2.23;;
14474;SDS011;7323;50.848;4.334;2023-09-19T09:45:23;10.00;;;2.50;;
14474;SDS011;7323;50.848;4.334;2023-09-19T09:47:58;8.60;;;2.10;;
14474;SDS011;7323;50.848;4.334;2023-09-19T09:50:29;7.03;;;2.23;;
14474;SDS011;7323;50.848;4.334;2023-09-19T09:53:03;12.17;;;3.00;;
14474;SDS011;7323;50.848;4.334;2023-09-19T09:58:25;6.77;;;1.90;;
14474;SDS011;7323;50.848;4.334;2023-09-19T10:00:57;8.17;;;2.10;;
14474;SDS011;7323;50.848;4.334;2023-09-19T10:03:37;12.17;;;2.77;;
14474;SDS011;7323;50.848;4.334;2023-09-19T10:06:09;8.13;;;2.03;;
14474;SDS011;7323;50.848;4.334;2023-09-19T10:08:59;6.93;;;1.90;;
14474;SDS011;7323;50.848;4.334;2023-09-19T10:11:30;7.33;;;2.47;;
14474;SDS011;7323;50.848;4.334;2023-09-19T10:13:57;6.40;;;1.80;;
14474;SDS011;7323;50.848;4.334;2023-09-19T10:16:27;8.00;;;2.90;;
14474;SDS011;7323;50.848;4.334;2023-09-19T10:18:57;6.10;;;1.67;;
14474;SDS011;7323;50.848;4.334;2023-09-19T10:21:28;5.67;;;1.93;;
14474;SDS011;7323;50.848;4.334;2023-09-19T10:23:55;7.47;;;2.20;;
14474;SDS011;7323;50.848;4.334;2023-09-19T10:26:28;6.40;;;1.80;;
14474;SDS011;7323;50.848;4.334;2023-09-19T10:28:57;8.33;;;1.80;;
14474;SDS011;7323;50.848;4.334;2023-09-19T10:31:27;7.10;;;1.80;;
14474;SDS011;7323;50.848;4.334;2023-09-19T10:33:55;4.53;;;1.40;;
14474;SDS011;7323;50.848;4.334;2023-09-19T10:36:25;7.13;;;1.80;;
14474;SDS011;7323;50.848;4.334;2023-09-19T10:38:54;10.07;;;2.53;;
14474;SDS011;7323;50.848;4.334;2023-09-19T10:41:24;9.90;;;1.90;;
14474;SDS011;7323;50.848;4.334;2023-09-19T10:43:52;8.60;;;1.70;;
14474;SDS011;7323;50.848;4.334;2023-09-19T10:46:19;4.70;;;1.60;;
14474;SDS011;7323;50.848;4.334;2023-09-19T10:48:45;5.93;;;1.53;;
14474;SDS011;7323;50.848;4.334;2023-09-19T10:51:18;9.03;;;2.27;;
14474;SDS011;7323;50.848;4.334;2023-09-19T10:54:22;4.37;;;1.27;;
14474;SDS011;7323;50.848;4.334;2023-09-19T10:56:46;6.27;;;1.60;;
14474;SDS011;7323;50.848;4.334;2023-09-19T10:59:17;5.33;;;1.60;;
14474;SDS011;7323;50.848;4.334;2023-09-19T11:04:33;6.57;;;1.90;;
14474;SDS011;7323;50.848;4.334;2023-09-19T11:09:45;6.63;;;1.50;;
14474;SDS011;7323;50.848;4.334;2023-09-19T11:12:11;5.90;;;1.47;;
14474;SDS011;7323;50.848;4.334;2023-09-19T11:15:00;10.57;;;1.67;;
14474;SDS011;7323;50.848;4.334;2023-09-19T11:17:36;6.50;;;1.60;;
14474;SDS011;7323;50.848;4.334;2023-09-19T11:30:32;3.97;;;1.37;;
14474;SDS011;7323;50.848;4.334;2023-09-19T11:36:04;6.00;;;1.77;;
14474;SDS011;7323;50.848;4.334;2023-09-19T11:46:28;5.30;;;1.33;;
14474;SDS011;7323;50.848;4.334;2023-09-19T11:49:07;3.83;;;1.53;;
14474;SDS011;7323;50.848;4.334;2023-09-19T11:51:54;8.43;;;1.93;;
14474;SDS011;7323;50.848;4.334;2023-09-19T11:54:21;6.80;;;1.70;;
14474;SDS011;7323;50.848;4.334;2023-09-19T11:56:50;5.17;;;1.50;;
14474;SDS011;7323;50.848;4.334;2023-09-19T11:59:22;5.50;;;1.40;;
14474;SDS011;7323;50.848;4.334;2023-09-19T12:01:53;6.17;;;1.30;;
14474;SDS011;7323;50.848;4.334;2023-09-19T12:04:44;6.30;;;1.70;;
14474;SDS011;7323;50.848;4.334;2023-09-19T12:07:16;6.67;;;1.50;;
14474;SDS011;7323;50.848;4.334;2023-09-19T12:09:51;6.13;;;1.57;;
14474;SDS011;7323;50.848;4.334;2023-09-19T12:12:31;5.03;;;1.33;;
14474;SDS011;7323;50.848;4.334;2023-09-19T12:14:58;9.60;;;1.70;;
14474;SDS011;7323;50.848;4.334;2023-09-19T12:17:37;7.17;;;1.50;;
14474;SDS011;7323;50.848;4.334;2023-09-19T12:20:06;3.33;;;1.27;;
14474;SDS011;7323;50.848;4.334;2023-09-19T12:22:39;5.53;;;1.60;;
14474;SDS011;7323;50.848;4.334;2023-09-19T12:25:06;3.50;;;1.40;;
14474;SDS011;7323;50.848;4.334;2023-09-19T12:27:41;6.03;;;1.50;;
14474;SDS011;7323;50.848;4.334;2023-09-19T12:30:13;4.33;;;1.50;;
14474;SDS011;7323;50.848;4.334;2023-09-19T12:32:40;4.87;;;1.60;;
14474;SDS011;7323;50.848;4.334;2023-09-19T12:35:08;6.13;;;1.50;;
14474;SDS011;7323;50.848;4.334;2023-09-19T12:37:45;7.73;;;1.50;;
14474;SDS011;7323;50.848;4.334;2023-09-19T12:40:18;5.07;;;1.50;;
14474;SDS011;7323;50.848;4.334;2023-09-19T12:45:23;5.77;;;1.60;;
14474;SDS011;7323;50.848;4.334;2023-09-19T12:53:42;6.33;;;1.70;;
14474;SDS011;7323;50.848;4.334;2023-09-19T12:56:13;4.37;;;1.40;;
14474;SDS011;7323;50.848;4.334;2023-09-19T12:58:50;5.10;;;1.20;;
14474;SDS011;7323;50.848;4.334;2023-09-19T13:01:21;7.03;;;1.80;;
14474;SDS011;7323;50.848;4.334;2023-09-19T13:04:11;8.93;;;1.77;;
14474;SDS011;7323;50.848;4.334;2023-09-19T13:06:46;4.40;;;1.10;;
14474;SDS011;7323;50.848;4.334;2023-09-19T13:09:14;7.67;;;1.40;;
14474;SDS011;7323;50.848;4.334;2023-09-19T13:11:41;4.10;;;1.40;;
14474;SDS011;7323;50.848;4.334;2023-09-19T13:14:13;4.83;;;1.50;;
14474;SDS011;7323;50.848;4.334;2023-09-19T13:19:49;7.90;;;1.67;;
14474;SDS011;7323;50.848;4.334;2023-09-19T13:22:38;5.87;;;1.37;;
14474;SDS011;7323;50.848;4.334;2023-09-19T13:25:08;4.43;;;1.20;;
14474;SDS011;7323;50.848;4.334;2023-09-19T13:27:44;3.90;;;0.93;;
14474;SDS011;7323;50.848;4.334;2023-09-19T13:30:13;8.23;;;1.40;;
14474;SDS011;7323;50.848;4.334;2023-09-19T13:32:39;4.57;;;1.30;;
14474;SDS011;7323;50.848;4.334;2023-09-19T13:35:08;6.10;;;1.30;;
14474;SDS011;7323;50.848;4.334;2023-09-19T13:37:40;4.77;;;1.37;;
14474;SDS011;7323;50.848;4.334;2023-09-19T13:40:10;5.00;;;1.73;;
14474;SDS011;7323;50.848;4.334;2023-09-19T13:42:37;4.57;;;1.60;;
14474;SDS011;7323;50.848;4.334;2023-09-19T13:45:03;4.57;;;1.67;;
14474;SDS011;7323;50.848;4.334;2023-09-19T13:47:29;7.00;;;1.60;;
14474;SDS011;7323;50.848;4.334;2023-09-19T13:49:56;7.53;;;1.57;;
14474;SDS011;7323;50.848;4.334;2023-09-19T13:52:22;6.30;;;1.70;;
14474;SDS011;7323;50.848;4.334;2023-09-19T13:54:50;5.30;;;1.60;;
14474;SDS011;7323;50.848;4.334;2023-09-19T13:57:16;7.70;;;1.80;;
14474;SDS011;7323;50.848;4.334;2023-09-19T13:59:42;5.40;;;1.93;;
14474;SDS011;7323;50.848;4.334;2023-09-19T14:02:09;6.10;;;1.63;;
14474;SDS011;7323;50.848;4.334;2023-09-19T14:04:34;5.63;;;1.80;;
14474;SDS011;7323;50.848;4.334;2023-09-19T14:07:01;7.90;;;1.80;;
14474;SDS011;7323;50.848;4.334;2023-09-19T14:09:27;6.80;;;2.10;;
14474;SDS011;7323;50.848;4.334;2023-09-19T14:11:53;4.70;;;1.70;;
14474;SDS011;7323;50.848;4.334;2023-09-19T14:14:19;7.20;;;1.80;;
14474;SDS011;7323;50.848;4.334;2023-09-19T14:16:49;7.90;;;1.80;;
14474;SDS011;7323;50.848;4.334;2023-09-19T14:19:14;5.50;;;1.80;;
14474;SDS011;7323;50.848;4.334;2023-09-19T14:21:41;7.53;;;2.27;;
14474;SDS011;7323;50.848;4.334;2023-09-19T14:24:07;6.93;;;1.67;;
14474;SDS011;7323;50.848;4.334;2023-09-19T14:26:38;6.53;;;1.90;;
14474;SDS011;7323;50.848;4.334;2023-09-19T14:29:05;7.73;;;1.67;;
14474;SDS011;7323;50.848;4.334;2023-09-19T14:31:32;4.50;;;1.47;;
14474;SDS011;7323;50.848;4.334;2023-09-19T14:34:06;5.37;;;1.83;;
14474;SDS011;7323;50.848;4.334;2023-09-19T14:36:35;5.80;;;1.70;;
14474;SDS011;7323;50.848;4.334;2023-09-19T14:39:03;5.20;;;1.60;;
14474;SDS011;7323;50.848;4.334;2023-09-19T14:41:29;4.67;;;1.60;;
14474;SDS011;7323;50.848;4.334;2023-09-19T14:43:57;6.43;;;1.80;;
14474;SDS011;7323;50.848;4.334;2023-09-19T14:46:23;6.87;;;1.93;;
14474;SDS011;7323;50.848;4.334;2023-09-19T14:48:51;7.23;;;1.77;;
14474;SDS011;7323;50.848;4.334;2023-09-19T14:51:18;4.37;;;1.70;;
14474;SDS011;7323;50.848;4.334;2023-09-19T14:53:44;7.13;;;2.23;;
14474;SDS011;7323;50.848;4.334;2023-09-19T14:56:11;5.40;;;2.00;;
14474;SDS011;7323;50.848;4.334;2023-09-19T14:58:38;6.40;;;2.57;;
14474;SDS011;7323;50.848;4.334;2023-09-19T15:01:05;7.93;;;1.90;;
14474;SDS011;7323;50.848;4.334;2023-09-19T15:03:36;8.07;;;2.30;;
14474;SDS011;7323;50.848;4.334;2023-09-19T15:06:02;6.83;;;2.03;;
14474;SDS011;7323;50.848;4.334;2023-09-19T15:08:30;10.37;;;2.23;;
14474;SDS011;7323;50.848;4.334;2023-09-19T15:10:56;11.40;;;2.23;;
14474;SDS011;7323;50.848;4.334;2023-09-19T15:13:23;6.60;;;2.00;;
14474;SDS011;7323;50.848;4.334;2023-09-19T15:15:58;8.40;;;2.20;;
14474;SDS011;7323;50.848;4.334;2023-09-19T15:18:25;5.23;;;2.20;;
14474;SDS011;7323;50.848;4.334;2023-09-19T15:20:52;5.60;;;1.77;;
14474;SDS011;7323;50.848;4.334;2023-09-19T15:23:18;6.30;;;1.70;;
14474;SDS011;7323;50.848;4.334;2023-09-19T15:25:50;6.13;;;1.70;;
14474;SDS011;7323;50.848;4.334;2023-09-19T15:28:16;6.13;;;1.90;;
14474;SDS011;7323;50.848;4.334;2023-09-19T15:30:44;8.33;;;2.00;;
14474;SDS011;7323;50.848;4.334;2023-09-19T15:33:09;7.30;;;1.77;;
14474;SDS011;7323;50.848;4.334;2023-09-19T15:35:36;9.23;;;2.00;;
14474;SDS011;7323;50.848;4.334;2023-09-19T15:38:03;9.83;;;2.50;;
14474;SDS011;7323;50.848;4.334;2023-09-19T15:40:29;6.33;;;1.63;;
14474;SDS011;7323;50.848;4.334;2023-09-19T15:43:02;5.57;;;1.70;;
14474;SDS011;7323;50.848;4.334;2023-09-19T15:45:29;5.93;;;2.30;;
14474;SDS011;7323;50.848;4.334;2023-09-19T15:47:56;4.93;;;1.80;;
14474;SDS011;7323;50.848;4.334;2023-09-19T15:50:22;7.87;;;2.27;;
14474;SDS011;7323;50.848;4.334;2023-09-19T15:52:52;6.63;;;1.90;;
14474;SDS011;7323;50.848;4.334;2023-09-19T15:55:19;3.73;;;1.70;;
14474;SDS011;7323;50.848;4.334;2023-09-19T15:57:45;4.23;;;1.40;;
14474;SDS011;7323;50.848;4.334;2023-09-19T16:00:11;5.67;;;1.90;;
14474;SDS011;7323;50.848;4.334;2023-09-19T16:02:39;5.90;;;1.73;;
14474;SDS011;7323;50.848;4.334;2023-09-19T16:05:04;8.67;;;1.97;;
14474;SDS011;7323;50.848;4.334;2023-09-19T16:07:33;5.33;;;1.60;;
14474;SDS011;7323;50.848;4.334;2023-09-19T16:10:01;5.27;;;1.70;;
14474;SDS011;7323;50.848;4.334;2023-09-19T16:12:27;5.13;;;1.83;;
14474;SDS011;7323;50.848;4.334;2023-09-19T16:14:53;6.23;;;1.83;;
14474;SDS011;7323;50.848;4.334;2023-09-19T16:17:20;4.07;;;1.80;;
14474;SDS011;7323;50.848;4.334;2023-09-19T16:19:47;6.17;;;1.87;;
14474;SDS011;7323;50.848;4.334;2023-09-19T16:22:13;5.00;;;2.23;;